sensor_id;sensor_type;location;lat;lon;timestamp;pressure;altitude;pressure_sealevel;temperature;humidity
18850;BME280;4989;48.772;9.154;2022-12-10T00:01:57;96769.78;;;6.28;100.00
18850;BME280;4989;48.772;9.154;2022-12-10T00:06:59;96765.44;;;6.18;100.00
18850;BME280;4989;48.772;9.154;2022-12-10T00:12:02;96768.28;;;6.27;100.00
18850;BME280;4989;48.772;9.154;2022-12-10T00:17:05;96771.31;;;6.29;100.00
18850;BME280;4989;48.772;9.154;2022-12-10T00:22:14;96778.91;;;6.34;100.00
18850;BME280;4989;48.772;9.154;2022-12-10T00:27:16;96783.78;;;6.23;100.00
18850;BME280;4989;48.772;9.154;2022-12-10T00:32:19;96769.97;;;6.21;100.00
18850;BME280;4989;48.772;9.154;2022-12-10T00:37:21;96768.63;;;6.13;100.00
18850;BME280;4989;48.772;9.154;2022-12-10T00:42:23;96771.81;;;6.08;100.00
18850;BME280;4989;48.772;9.154;2022-12-10T00:47:26;96768.72;;;6.09;100.00
18850;BME280;4989;48.772;9.154;2022-12-10T00:52:29;96774.34;;;5.99;100.00
18850;BME280;4989;48.772;9.154;2022-12-10T00:57:32;96774.66;;;5.84;100.00
18850;BME280;4989;48.772;9.154;2022-12-10T01:02:35;96780.84;;;5.65;100.00
18850;BME280;4989;48.772;9.154;2022-12-10T01:07:38;96780.94;;;5.41;100.00
18850;BME280;4989;48.772;9.154;2022-12-10T01:12:40;96799.47;;;5.39;100.00
18850;BME280;4989;48.772;9.154;2022-12-10T01:17:43;96801.25;;;5.82;100.00
18850;BME280;4989;48.772;9.154;2022-12-10T01:22:48;96799.56;;;5.72;100.00
18850;BME280;4989;48.772;9.154;2022-12-10T01:27:50;96809.25;;;5.49;100.00
18850;BME280;4989;48.772;9.154;2022-12-10T01:32:53;96820.44;;;5.68;100.00
18850;BME280;4989;48.772;9.154;2022-12-10T01:37:55;96825.16;;;5.64;100.00
18850;BME280;4989;48.772;9.154;2022-12-10T01:42:58;96828.78;;;5.73;100.00
18850;BME280;4989;48.772;9.154;2022-12-10T01:48:01;96833.44;;;5.73;100.00
18850;BME280;4989;48.772;9.154;2022-12-10T01:53:09;96839.06;;;5.99;100.00
18850;BME280;4989;48.772;9.154;2022-12-10T01:58:14;96839.09;;;5.79;100.00
18850;BME280;4989;48.772;9.154;2022-12-10T02:03:26;96844.59;;;5.91;100.00
18850;BME280;4989;48.772;9.154;2022-12-10T02:08:39;96840.63;;;5.60;100.00
18850;BME280;4989;48.772;9.154;2022-12-10T02:13:57;96830.97;;;5.42;100.00
18850;BME280;4989;48.772;9.154;2022-12-10T02:24:35;96832.63;;;5.36;100.00
18850;BME280;4989;48.772;9.154;2022-12-10T02:29:39;96831.25;;;5.48;100.00
18850;BME280;4989;48.772;9.154;2022-12-10T02:34:51;96821.63;;;5.47;100.00
18850;BME280;4989;48.772;9.154;2022-12-10T02:39:57;96806.75;;;5.59;100.00
18850;BME280;4989;48.772;9.154;2022-12-10T02:45:05;96812.31;;;5.51;100.00
18850;BME280;4989;48.772;9.154;2022-12-10T02:50:11;96802.94;;;5.20;100.00
18850;BME280;4989;48.772;9.154;2022-12-10T02:55:17;96791.63;;;5.09;100.00
18850;BME280;4989;48.772;9.154;2022-12-10T03:00:25;96781.78;;;5.38;100.00
18850;BME280;4989;48.772;9.154;2022-12-10T03:05:55;96799.97;;;5.34;100.00
18850;BME280;4989;48.772;9.154;2022-12-10T03:16:14;96788.47;;;4.70;100.00
18850;BME280;4989;48.772;9.154;2022-12-10T03:21:17;96798.78;;;4.75;100.00
18850;BME280;4989;48.772;9.154;2022-12-10T03:26:21;96797.88;;;5.22;100.00
18850;BME280;4989;48.772;9.154;2022-12-10T03:31:25;96779.44;;;5.40;100.00
18850;BME280;4989;48.772;9.154;2022-12-10T03:36:29;96773.00;;;5.54;100.00
18850;BME280;4989;48.772;9.154;2022-12-10T03:41:33;96771.78;;;5.39;100.00
18850;BME280;4989;48.772;9.154;2022-12-10T03:46:36;96780.44;;;5.30;100.00
18850;BME280;4989;48.772;9.154;2022-12-10T03:51:38;96804.78;;;5.43;100.00
18850;BME280;4989;48.772;9.154;2022-12-10T03:56:40;96805.53;;;5.43;100.00
18850;BME280;4989;48.772;9.154;2022-12-10T04:01:43;96806.66;;;5.26;100.00
18850;BME280;4989;48.772;9.154;2022-12-10T04:06:46;96812.88;;;5.23;100.00
18850;BME280;4989;48.772;9.154;2022-12-10T04:11:48;96814.50;;;5.57;100.00
18850;BME280;4989;48.772;9.154;2022-12-10T04:16:51;96821.94;;;5.33;100.00
18850;BME280;4989;48.772;9.154;2022-12-10T04:21:53;96830.06;;;5.29;100.00
18850;BME280;4989;48.772;9.154;2022-12-10T04:27:24;96830.47;;;4.88;100.00
18850;BME280;4989;48.772;9.154;2022-12-10T04:32:28;96821.53;;;4.71;100.00
18850;BME280;4989;48.772;9.154;2022-12-10T04:37:34;96844.91;;;4.97;100.00
18850;BME280;4989;48.772;9.154;2022-12-10T04:42:36;96836.47;;;4.95;100.00
18850;BME280;4989;48.772;9.154;2022-12-10T04:47:39;96834.25;;;4.90;100.00
18850;BME280;4989;48.772;9.154;2022-12-10T04:52:41;96834.78;;;4.34;100.00
18850;BME280;4989;48.772;9.154;2022-12-10T04:57:44;96839.13;;;4.52;100.00
18850;BME280;4989;48.772;9.154;2022-12-10T05:02:48;96832.97;;;4.75;100.00
18850;BME280;4989;48.772;9.154;2022-12-10T05:07:51;96833.31;;;4.77;100.00
18850;BME280;4989;48.772;9.154;2022-12-10T05:12:54;96835.69;;;4.51;100.00
18850;BME280;4989;48.772;9.154;2022-12-10T05:17:56;96835.41;;;4.69;100.00
18850;BME280;4989;48.772;9.154;2022-12-10T05:22:59;96836.84;;;4.74;100.00
18850;BME280;4989;48.772;9.154;2022-12-10T05:28:23;96841.00;;;4.78;100.00
18850;BME280;4989;48.772;9.154;2022-12-10T05:33:26;96839.09;;;4.99;100.00
18850;BME280;4989;48.772;9.154;2022-12-10T05:38:30;96853.19;;;5.07;100.00
18850;BME280;4989;48.772;9.154;2022-12-10T05:43:33;96840.78;;;5.13;100.00
18850;BME280;4989;48.772;9.154;2022-12-10T05:48:35;96856.34;;;5.01;100.00
18850;BME280;4989;48.772;9.154;2022-12-10T05:53:38;96857.19;;;4.98;100.00
18850;BME280;4989;48.772;9.154;2022-12-10T05:58:43;96859.03;;;5.01;100.00
18850;BME280;4989;48.772;9.154;2022-12-10T06:03:46;96856.34;;;5.01;100.00
18850;BME280;4989;48.772;9.154;2022-12-10T06:08:50;96872.19;;;4.76;100.00
18850;BME280;4989;48.772;9.154;2022-12-10T06:13:53;96876.97;;;4.65;100.00
18850;BME280;4989;48.772;9.154;2022-12-10T06:18:58;96884.13;;;4.51;100.00
18850;BME280;4989;48.772;9.154;2022-12-10T06:24:01;96886.69;;;4.82;100.00
18850;BME280;4989;48.772;9.154;2022-12-10T06:29:03;96886.56;;;5.13;100.00
18850;BME280;4989;48.772;9.154;2022-12-10T06:34:07;96891.63;;;4.87;100.00
18850;BME280;4989;48.772;9.154;2022-12-10T06:39:09;96894.19;;;4.94;100.00
18850;BME280;4989;48.772;9.154;2022-12-10T06:44:12;96908.69;;;5.00;100.00
18850;BME280;4989;48.772;9.154;2022-12-10T06:49:14;96911.25;;;4.61;100.00
18850;BME280;4989;48.772;9.154;2022-12-10T06:54:17;96911.84;;;4.45;100.00
18850;BME280;4989;48.772;9.154;2022-12-10T06:59:19;96918.09;;;4.65;100.00
18850;BME280;4989;48.772;9.154;2022-12-10T07:04:23;96909.25;;;4.65;100.00
18850;BME280;4989;48.772;9.154;2022-12-10T07:09:25;96914.31;;;4.86;100.00
18850;BME280;4989;48.772;9.154;2022-12-10T07:14:28;96916.59;;;4.88;100.00
18850;BME280;4989;48.772;9.154;2022-12-10T07:19:30;96912.03;;;4.85;100.00
18850;BME280;4989;48.772;9.154;2022-12-10T07:24:33;96920.63;;;4.76;100.00
18850;BME280;4989;48.772;9.154;2022-12-10T07:29:37;96925.88;;;4.59;100.00
18850;BME280;4989;48.772;9.154;2022-12-10T07:34:40;96936.66;;;4.83;100.00
18850;BME280;4989;48.772;9.154;2022-12-10T07:39:42;96939.34;;;5.07;100.00
18850;BME280;4989;48.772;9.154;2022-12-10T07:44:45;96943.69;;;4.77;100.00
18850;BME280;4989;48.772;9.154;2022-12-10T07:49:50;96952.56;;;4.74;100.00
18850;BME280;4989;48.772;9.154;2022-12-10T07:54:53;96954.06;;;4.75;100.00
18850;BME280;4989;48.772;9.154;2022-12-10T07:59:55;96952.72;;;4.90;100.00
18850;BME280;4989;48.772;9.154;2022-12-10T08:04:57;96962.38;;;4.61;100.00
18850;BME280;4989;48.772;9.154;2022-12-10T08:10:00;96954.22;;;4.10;100.00
18850;BME280;4989;48.772;9.154;2022-12-10T08:15:03;96966.28;;;3.98;100.00
18850;BME280;4989;48.772;9.154;2022-12-10T08:20:06;96971.81;;;3.84;100.00
18850;BME280;4989;48.772;9.154;2022-12-10T08:25:10;96967.28;;;4.08;100.00
18850;BME280;4989;48.772;9.154;2022-12-10T08:30:12;96966.91;;;4.09;100.00
18850;BME280;4989;48.772;9.154;2022-12-10T08:35:15;96959.44;;;4.51;100.00
18850;BME280;4989;48.772;9.154;2022-12-10T08:40:17;96972.97;;;4.44;100.00
18850;BME280;4989;48.772;9.154;2022-12-10T08:45:20;96973.88;;;4.34;100.00
18850;BME280;4989;48.772;9.154;2022-12-10T08:50:22;96980.38;;;4.36;100.00
18850;BME280;4989;48.772;9.154;2022-12-10T08:55:25;96984.28;;;4.32;100.00
18850;BME280;4989;48.772;9.154;2022-12-10T09:00:27;96988.56;;;4.83;100.00
18850;BME280;4989;48.772;9.154;2022-12-10T09:05:29;96994.34;;;4.82;100.00
18850;BME280;4989;48.772;9.154;2022-12-10T09:10:32;96997.66;;;4.93;100.00
18850;BME280;4989;48.772;9.154;2022-12-10T09:15:35;97003.28;;;5.02;100.00
18850;BME280;4989;48.772;9.154;2022-12-10T09:20:38;97017.47;;;5.30;100.00
18850;BME280;4989;48.772;9.154;2022-12-10T09:25:40;97009.03;;;5.28;100.00
18850;BME280;4989;48.772;9.154;2022-12-10T09:30:42;97029.06;;;5.27;100.00
18850;BME280;4989;48.772;9.154;2022-12-10T09:35:45;97031.41;;;4.71;100.00
18850;BME280;4989;48.772;9.154;2022-12-10T09:40:55;97027.88;;;5.28;100.00
18850;BME280;4989;48.772;9.154;2022-12-10T09:56:22;97025.41;;;5.14;100.00
18850;BME280;4989;48.772;9.154;2022-12-10T10:01:30;97026.94;;;5.15;100.00
18850;BME280;4989;48.772;9.154;2022-12-10T10:06:35;97023.59;;;5.31;100.00
18850;BME280;4989;48.772;9.154;2022-12-10T10:11:37;97025.66;;;5.46;100.00
18850;BME280;4989;48.772;9.154;2022-12-10T10:17:03;97024.72;;;5.10;100.00
18850;BME280;4989;48.772;9.154;2022-12-10T10:22:10;97022.94;;;5.23;100.00
18850;BME280;4989;48.772;9.154;2022-12-10T10:27:21;97018.22;;;5.31;100.00
18850;BME280;4989;48.772;9.154;2022-12-10T10:32:51;97023.31;;;5.72;100.00
18850;BME280;4989;48.772;9.154;2022-12-10T10:38:21;97027.28;;;5.40;100.00
18850;BME280;4989;48.772;9.154;2022-12-10T10:43:48;97012.84;;;5.74;100.00
18850;BME280;4989;48.772;9.154;2022-12-10T10:48:50;97019.94;;;6.08;100.00
18850;BME280;4989;48.772;9.154;2022-12-10T10:53:54;97016.91;;;6.06;100.00
18850;BME280;4989;48.772;9.154;2022-12-10T10:59:02;97033.59;;;5.77;100.00
18850;BME280;4989;48.772;9.154;2022-12-10T11:04:06;97036.50;;;5.86;100.00
18850;BME280;4989;48.772;9.154;2022-12-10T11:09:13;97034.81;;;5.96;100.00
18850;BME280;4989;48.772;9.154;2022-12-10T11:19:28;97044.44;;;6.17;100.00
18850;BME280;4989;48.772;9.154;2022-12-10T11:24:30;97035.38;;;6.07;100.00
18850;BME280;4989;48.772;9.154;2022-12-10T11:35:02;97044.91;;;6.32;100.00
18850;BME280;4989;48.772;9.154;2022-12-10T11:50:56;97040.41;;;6.45;100.00
18850;BME280;4989;48.772;9.154;2022-12-10T11:56:28;97046.22;;;6.43;100.00
18850;BME280;4989;48.772;9.154;2022-12-10T12:06:42;97034.47;;;6.54;100.00
18850;BME280;4989;48.772;9.154;2022-12-10T12:17:23;97047.16;;;6.53;100.00
18850;BME280;4989;48.772;9.154;2022-12-10T12:22:36;97054.97;;;6.68;100.00
18850;BME280;4989;48.772;9.154;2022-12-10T12:27:45;97061.84;;;6.72;100.00
18850;BME280;4989;48.772;9.154;2022-12-10T12:33:11;97064.22;;;6.30;100.00
18850;BME280;4989;48.772;9.154;2022-12-10T12:43:25;97071.16;;;6.87;100.00
18850;BME280;4989;48.772;9.154;2022-12-10T12:48:48;97068.72;;;6.57;100.00
18850;BME280;4989;48.772;9.154;2022-12-10T12:53:53;97078.88;;;6.69;100.00
18850;BME280;4989;48.772;9.154;2022-12-10T12:59:04;97082.88;;;6.61;100.00
18850;BME280;4989;48.772;9.154;2022-12-10T13:04:11;97087.81;;;6.46;100.00
18850;BME280;4989;48.772;9.154;2022-12-10T13:09:16;97094.13;;;6.39;100.00
18850;BME280;4989;48.772;9.154;2022-12-10T13:14:32;97101.59;;;6.52;100.00
18850;BME280;4989;48.772;9.154;2022-12-10T13:19:35;97097.97;;;6.58;100.00
18850;BME280;4989;48.772;9.154;2022-12-10T13:29:59;97092.56;;;6.78;100.00
18850;BME280;4989;48.772;9.154;2022-12-10T13:55:46;97151.00;;;6.49;100.00
18850;BME280;4989;48.772;9.154;2022-12-10T14:06:25;97161.28;;;6.34;100.00
18850;BME280;4989;48.772;9.154;2022-12-10T14:11:37;97168.78;;;6.03;100.00
18850;BME280;4989;48.772;9.154;2022-12-10T14:16:40;97163.53;;;5.92;100.00
18850;BME280;4989;48.772;9.154;2022-12-10T14:21:45;97167.38;;;5.94;100.00
18850;BME280;4989;48.772;9.154;2022-12-10T14:27:00;97165.50;;;6.15;100.00
18850;BME280;4989;48.772;9.154;2022-12-10T14:32:03;97181.78;;;6.08;100.00
18850;BME280;4989;48.772;9.154;2022-12-10T14:37:10;97178.38;;;6.04;100.00
18850;BME280;4989;48.772;9.154;2022-12-10T14:42:16;97182.97;;;6.07;100.00
18850;BME280;4989;48.772;9.154;2022-12-10T14:47:20;97191.28;;;6.16;100.00
18850;BME280;4989;48.772;9.154;2022-12-10T14:52:33;97201.72;;;6.14;100.00
18850;BME280;4989;48.772;9.154;2022-12-10T14:57:48;97210.50;;;5.94;100.00
18850;BME280;4989;48.772;9.154;2022-12-10T15:02:55;97215.38;;;5.76;100.00
18850;BME280;4989;48.772;9.154;2022-12-10T15:13:06;97225.97;;;5.90;100.00
18850;BME280;4989;48.772;9.154;2022-12-10T15:18:28;97226.94;;;5.77;100.00
18850;BME280;4989;48.772;9.154;2022-12-10T15:23:32;97226.97;;;5.73;100.00
18850;BME280;4989;48.772;9.154;2022-12-10T15:28:37;97237.59;;;5.84;100.00
18850;BME280;4989;48.772;9.154;2022-12-10T15:38:48;97241.91;;;5.50;100.00
18850;BME280;4989;48.772;9.154;2022-12-10T15:44:06;97243.16;;;5.46;100.00
18850;BME280;4989;48.772;9.154;2022-12-10T15:49:09;97241.22;;;5.46;100.00
18850;BME280;4989;48.772;9.154;2022-12-10T15:54:26;97247.22;;;5.58;100.00
18850;BME280;4989;48.772;9.154;2022-12-10T15:59:30;97244.41;;;5.65;100.00
18850;BME280;4989;48.772;9.154;2022-12-10T16:04:32;97250.88;;;5.71;100.00
18850;BME280;4989;48.772;9.154;2022-12-10T16:09:35;97251.63;;;5.75;100.00
18850;BME280;4989;48.772;9.154;2022-12-10T16:14:37;97252.44;;;5.72;100.00
18850;BME280;4989;48.772;9.154;2022-12-10T16:19:40;97253.13;;;5.76;100.00
18850;BME280;4989;48.772;9.154;2022-12-10T16:24:43;97257.25;;;5.57;100.00
18850;BME280;4989;48.772;9.154;2022-12-10T16:29:46;97264.28;;;5.78;100.00
18850;BME280;4989;48.772;9.154;2022-12-10T16:34:49;97270.47;;;5.75;100.00
18850;BME280;4989;48.772;9.154;2022-12-10T16:39:52;97278.47;;;5.82;100.00
18850;BME280;4989;48.772;9.154;2022-12-10T16:45:01;97290.06;;;5.79;100.00
18850;BME280;4989;48.772;9.154;2022-12-10T16:50:11;97293.25;;;5.70;100.00
18850;BME280;4989;48.772;9.154;2022-12-10T16:55:17;97298.00;;;5.59;100.00
18850;BME280;4989;48.772;9.154;2022-12-10T17:00:22;97303.50;;;5.52;100.00
18850;BME280;4989;48.772;9.154;2022-12-10T17:05:35;97310.66;;;5.66;100.00
18850;BME280;4989;48.772;9.154;2022-12-10T17:10:38;97304.78;;;5.71;100.00
18850;BME280;4989;48.772;9.154;2022-12-10T17:15:59;97311.53;;;5.56;100.00
18850;BME280;4989;48.772;9.154;2022-12-10T17:21:02;97311.16;;;5.54;100.00
18850;BME280;4989;48.772;9.154;2022-12-10T17:26:04;97308.91;;;5.18;100.00
18850;BME280;4989;48.772;9.154;2022-12-10T17:31:07;97316.91;;;5.25;100.00
18850;BME280;4989;48.772;9.154;2022-12-10T17:36:10;97322.50;;;5.41;100.00
18850;BME280;4989;48.772;9.154;2022-12-10T17:41:13;97320.03;;;5.20;100.00
18850;BME280;4989;48.772;9.154;2022-12-10T17:46:23;97325.38;;;5.27;100.00
18850;BME280;4989;48.772;9.154;2022-12-10T17:51:26;97328.94;;;5.51;100.00
18850;BME280;4989;48.772;9.154;2022-12-10T17:56:29;97345.09;;;5.51;100.00
18850;BME280;4989;48.772;9.154;2022-12-10T18:01:32;97341.34;;;5.45;100.00
18850;BME280;4989;48.772;9.154;2022-12-10T18:06:35;97349.50;;;4.55;100.00
18850;BME280;4989;48.772;9.154;2022-12-10T18:11:39;97339.56;;;4.93;100.00
18850;BME280;4989;48.772;9.154;2022-12-10T18:16:44;97342.34;;;5.24;100.00
18850;BME280;4989;48.772;9.154;2022-12-10T18:21:48;97336.75;;;5.38;100.00
18850;BME280;4989;48.772;9.154;2022-12-10T18:26:56;97347.13;;;5.05;100.00
18850;BME280;4989;48.772;9.154;2022-12-10T18:32:00;97354.06;;;4.09;100.00
18850;BME280;4989;48.772;9.154;2022-12-10T18:37:02;97343.88;;;4.83;100.00
18850;BME280;4989;48.772;9.154;2022-12-10T18:42:05;97350.94;;;5.12;100.00
18850;BME280;4989;48.772;9.154;2022-12-10T18:47:09;97346.09;;;4.47;100.00
18850;BME280;4989;48.772;9.154;2022-12-10T18:52:12;97352.63;;;3.87;100.00
18850;BME280;4989;48.772;9.154;2022-12-10T18:57:15;97349.81;;;4.64;100.00
18850;BME280;4989;48.772;9.154;2022-12-10T19:02:37;97358.00;;;4.95;100.00
18850;BME280;4989;48.772;9.154;2022-12-10T19:07:40;97362.47;;;5.12;100.00
18850;BME280;4989;48.772;9.154;2022-12-10T19:12:43;97364.78;;;5.10;100.00
18850;BME280;4989;48.772;9.154;2022-12-10T19:17:46;97373.09;;;5.23;100.00
18850;BME280;4989;48.772;9.154;2022-12-10T19:22:49;97375.28;;;5.35;100.00
18850;BME280;4989;48.772;9.154;2022-12-10T19:27:52;97363.00;;;5.34;100.00
18850;BME280;4989;48.772;9.154;2022-12-10T19:32:54;97363.13;;;5.20;100.00
18850;BME280;4989;48.772;9.154;2022-12-10T19:37:57;97364.69;;;5.21;100.00
18850;BME280;4989;48.772;9.154;2022-12-10T19:42:59;97367.44;;;5.14;100.00
18850;BME280;4989;48.772;9.154;2022-12-10T19:48:02;97369.44;;;5.06;100.00
18850;BME280;4989;48.772;9.154;2022-12-10T19:53:04;97368.53;;;5.20;100.00
18850;BME280;4989;48.772;9.154;2022-12-10T19:58:09;97365.63;;;5.03;100.00
18850;BME280;4989;48.772;9.154;2022-12-10T20:03:12;97369.47;;;5.02;100.00
18850;BME280;4989;48.772;9.154;2022-12-10T20:08:14;97370.44;;;4.81;100.00
18850;BME280;4989;48.772;9.154;2022-12-10T20:13:17;97374.91;;;4.95;100.00
18850;BME280;4989;48.772;9.154;2022-12-10T20:18:19;97368.44;;;4.89;100.00
18850;BME280;4989;48.772;9.154;2022-12-10T20:23:21;97383.44;;;4.90;100.00
18850;BME280;4989;48.772;9.154;2022-12-10T20:28:24;97386.94;;;4.87;100.00
18850;BME280;4989;48.772;9.154;2022-12-10T20:33:26;97387.69;;;4.84;100.00
18850;BME280;4989;48.772;9.154;2022-12-10T20:38:47;97385.03;;;4.80;100.00
18850;BME280;4989;48.772;9.154;2022-12-10T20:43:50;97384.78;;;4.68;100.00
18850;BME280;4989;48.772;9.154;2022-12-10T20:48:53;97385.19;;;4.63;100.00
18850;BME280;4989;48.772;9.154;2022-12-10T20:53:55;97384.38;;;4.66;100.00
18850;BME280;4989;48.772;9.154;2022-12-10T20:58:58;97388.28;;;4.61;100.00
18850;BME280;4989;48.772;9.154;2022-12-10T21:04:00;97392.13;;;4.64;100.00
18850;BME280;4989;48.772;9.154;2022-12-10T21:09:03;97386.41;;;4.54;100.00
18850;BME280;4989;48.772;9.154;2022-12-10T21:14:06;97378.28;;;4.62;100.00
18850;BME280;4989;48.772;9.154;2022-12-10T21:19:29;97385.16;;;4.70;100.00
18850;BME280;4989;48.772;9.154;2022-12-10T21:24:31;97389.09;;;4.54;100.00
18850;BME280;4989;48.772;9.154;2022-12-10T21:29:34;97372.28;;;4.43;100.00
18850;BME280;4989;48.772;9.154;2022-12-10T21:34:36;97388.16;;;4.20;100.00
18850;BME280;4989;48.772;9.154;2022-12-10T21:39:38;97384.00;;;4.11;100.00
18850;BME280;4989;48.772;9.154;2022-12-10T21:44:41;97381.53;;;3.61;100.00
18850;BME280;4989;48.772;9.154;2022-12-10T21:49:43;97376.19;;;3.61;100.00
18850;BME280;4989;48.772;9.154;2022-12-10T21:54:46;97369.97;;;3.79;100.00
18850;BME280;4989;48.772;9.154;2022-12-10T21:59:49;97372.56;;;3.93;100.00
18850;BME280;4989;48.772;9.154;2022-12-10T22:04:51;97372.59;;;3.86;100.00
18850;BME280;4989;48.772;9.154;2022-12-10T22:09:54;97372.56;;;3.93;100.00
18850;BME280;4989;48.772;9.154;2022-12-10T22:14:56;97375.63;;;3.95;100.00
18850;BME280;4989;48.772;9.154;2022-12-10T22:19:59;97373.28;;;4.04;100.00
18850;BME280;4989;48.772;9.154;2022-12-10T22:25:02;97368.66;;;4.05;100.00
18850;BME280;4989;48.772;9.154;2022-12-10T22:30:05;97374.81;;;4.02;100.00
18850;BME280;4989;48.772;9.154;2022-12-10T22:35:09;97376.28;;;4.13;100.00
18850;BME280;4989;48.772;9.154;2022-12-10T22:40:12;97374.91;;;3.91;100.00
18850;BME280;4989;48.772;9.154;2022-12-10T22:45:15;97392.56;;;3.88;100.00
18850;BME280;4989;48.772;9.154;2022-12-10T22:50:17;97380.97;;;4.06;100.00
18850;BME280;4989;48.772;9.154;2022-12-10T22:55:20;97381.53;;;3.61;100.00
18850;BME280;4989;48.772;9.154;2022-12-10T23:00:23;97369.09;;;2.37;100.00
18850;BME280;4989;48.772;9.154;2022-12-10T23:05:26;97370.53;;;1.88;100.00
18850;BME280;4989;48.772;9.154;2022-12-10T23:10:28;97375.09;;;1.83;100.00
18850;BME280;4989;48.772;9.154;2022-12-10T23:15:31;97370.44;;;1.66;100.00
18850;BME280;4989;48.772;9.154;2022-12-10T23:20:33;97369.81;;;2.98;100.00
18850;BME280;4989;48.772;9.154;2022-12-10T23:25:39;97366.69;;;3.28;100.00
18850;BME280;4989;48.772;9.154;2022-12-10T23:30:45;97369.97;;;3.79;100.00
18850;BME280;4989;48.772;9.154;2022-12-10T23:35:55;97362.63;;;3.86;100.00
18850;BME280;4989;48.772;9.154;2022-12-10T23:40:57;97367.41;;;3.47;100.00
18850;BME280;4989;48.772;9.154;2022-12-10T23:46:00;97368.91;;;3.58;100.00
18850;BME280;4989;48.772;9.154;2022-12-10T23:51:04;97374.28;;;3.48;100.00
18850;BME280;4989;48.772;9.154;2022-12-10T23:56:14;97365.91;;;3.35;100.00
